createdAt,value
2023-02-05T00:02:23.746Z,15.93
2023-02-05T00:04:53.420Z,15.82
2023-02-05T00:07:21.661Z,15.75
2023-02-05T00:09:51.987Z,14.82
2023-02-05T00:12:20.173Z,15.07
2023-02-05T00:14:48.413Z,14.32
2023-02-05T00:17:16.996Z,15.32
2023-02-05T00:19:45.245Z,15.20
2023-02-05T00:22:13.462Z,13.95
2023-02-05T00:24:41.903Z,13.85
2023-02-05T00:27:11.469Z,13.70
2023-02-05T00:29:39.861Z,13.70
2023-02-05T00:32:08.181Z,13.52
2023-02-05T00:34:36.606Z,13.52
2023-02-05T00:37:04.949Z,13.02
2023-02-05T00:39:33.585Z,13.32
2023-02-05T00:42:01.799Z,12.63
2023-02-05T00:44:31.400Z,11.30
2023-02-05T00:46:59.815Z,10.80
2023-02-05T00:49:28.107Z,11.15
2023-02-05T00:51:56.394Z,9.75
2023-02-05T00:54:24.874Z,9.38
2023-02-05T00:56:53.078Z,9.50
2023-02-05T00:59:22.312Z,8.95
2023-02-05T01:01:53.501Z,8.65
2023-02-05T01:04:21.899Z,8.18
2023-02-05T01:06:50.090Z,8.00
2023-02-05T01:09:18.460Z,8.27
2023-02-05T01:11:46.704Z,8.25
2023-02-05T01:14:14.974Z,7.72
2023-02-05T01:16:43.776Z,7.57
2023-02-05T01:19:13.349Z,8.27
2023-02-05T01:21:41.664Z,8.57
2023-02-05T01:24:10.338Z,7.70
2023-02-05T01:26:38.562Z,7.00
2023-02-05T01:29:06.914Z,7.50
2023-02-05T01:31:35.576Z,7.00
2023-02-05T01:34:03.989Z,7.45
2023-02-05T01:36:33.588Z,7.22
2023-02-05T01:39:01.936Z,6.47
2023-02-05T01:41:30.431Z,6.75
2023-02-05T01:44:09.812Z,6.47
2023-02-05T01:46:40.659Z,7.03
2023-02-05T01:49:12.330Z,6.00
2023-02-05T01:51:42.667Z,6.25
2023-02-05T01:54:11.141Z,6.32
2023-02-05T01:56:43.015Z,6.47
2023-02-05T01:59:15.937Z,6.75
2023-02-05T02:01:45.395Z,7.00
2023-02-05T02:04:16.406Z,6.82
2023-02-05T02:06:46.488Z,7.20
2023-02-05T02:09:14.765Z,7.20
2023-02-05T02:11:44.761Z,7.40
2023-02-05T02:14:14.944Z,7.03
2023-02-05T02:16:43.220Z,6.78
2023-02-05T02:19:18.958Z,7.15
2023-02-05T02:22:18.514Z,7.78
2023-02-05T02:25:28.568Z,7.43
2023-02-05T02:28:00.736Z,7.65
2023-02-05T02:30:36.018Z,8.07
2023-02-05T02:33:10.153Z,7.53
2023-02-05T02:35:50.473Z,8.20
2023-02-05T02:38:23.284Z,7.90
2023-02-05T02:40:54.472Z,8.00
2023-02-05T02:43:27.850Z,8.15
2023-02-05T02:46:02.907Z,8.88
2023-02-05T02:48:34.065Z,8.30
2023-02-05T02:51:04.679Z,8.52
2023-02-05T02:53:37.832Z,8.93
2023-02-05T02:56:08.827Z,10.30
2023-02-05T02:58:43.671Z,9.05
2023-02-05T03:01:13.442Z,9.25
2023-02-05T03:03:46.135Z,9.38
2023-02-05T03:06:15.881Z,10.40
2023-02-05T03:08:50.839Z,10.10
2023-02-05T03:11:19.517Z,9.75
2023-02-05T03:13:49.660Z,11.02
2023-02-05T03:16:21.606Z,10.73
2023-02-05T03:18:50.543Z,11.68
2023-02-05T03:21:23.946Z,11.45
2023-02-05T03:23:52.834Z,11.23
2023-02-05T03:26:28.659Z,12.07
2023-02-05T03:29:01.612Z,11.27
2023-02-05T03:31:37.477Z,11.90
2023-02-05T03:34:20.684Z,12.68
2023-02-05T03:37:02.065Z,12.50
2023-02-05T03:39:38.660Z,12.57
2023-02-05T03:42:19.344Z,12.55
2023-02-05T03:45:25.552Z,12.00
2023-02-05T03:48:13.524Z,12.75
2023-02-05T03:50:48.068Z,11.82
2023-02-05T03:53:23.383Z,12.90
2023-02-05T03:55:58.386Z,13.70
2023-02-05T03:58:33.227Z,13.80
2023-02-05T04:01:03.583Z,13.02
2023-02-05T04:03:31.831Z,13.32
2023-02-05T04:06:00.389Z,13.57
2023-02-05T04:08:28.922Z,13.50
2023-02-05T04:10:57.118Z,13.93
2023-02-05T04:13:25.535Z,13.77
2023-02-05T04:15:53.972Z,12.93
2023-02-05T04:18:23.590Z,13.20
2023-02-05T04:20:52.117Z,13.90
2023-02-05T04:23:20.459Z,13.60
2023-02-05T04:25:48.669Z,13.65
2023-02-05T04:28:17.023Z,13.38
2023-02-05T04:30:45.558Z,13.27
2023-02-05T04:33:13.844Z,13.73
2023-02-05T04:35:43.738Z,14.18
2023-02-05T04:38:12.184Z,14.40
2023-02-05T04:40:40.395Z,14.70
2023-02-05T04:43:09.548Z,14.93
2023-02-05T04:45:37.854Z,14.15
2023-02-05T04:48:06.743Z,14.75
2023-02-05T04:50:35.668Z,14.93
2023-02-05T04:53:05.455Z,15.88
2023-02-05T04:55:34.260Z,15.73
2023-02-05T04:58:03.302Z,15.30
2023-02-05T05:00:31.775Z,16.42
2023-02-05T05:03:00.034Z,16.33
2023-02-05T05:05:28.471Z,16.23
2023-02-05T05:07:56.611Z,16.00
2023-02-05T05:10:26.234Z,16.95
2023-02-05T05:12:54.644Z,17.63
2023-02-05T05:15:23.007Z,18.02
2023-02-05T05:17:51.136Z,18.40
2023-02-05T05:20:19.778Z,17.05
2023-02-05T05:22:48.151Z,18.58
2023-02-05T05:25:16.590Z,19.73
2023-02-05T05:27:46.289Z,20.38
2023-02-05T05:30:15.386Z,21.38
2023-02-05T05:32:43.554Z,21.20
2023-02-05T05:35:12.218Z,22.48
2023-02-05T05:37:40.621Z,22.48
2023-02-05T05:40:28.937Z,24.20
2023-02-05T05:43:16.223Z,24.05
2023-02-05T05:45:44.630Z,23.83
2023-02-05T05:48:12.947Z,22.00
2023-02-05T05:50:41.163Z,20.58
2023-02-05T05:53:09.619Z,19.63
2023-02-05T05:55:38.103Z,18.58
2023-02-05T05:58:07.731Z,18.50
2023-02-05T06:00:36.501Z,14.88
2023-02-05T06:03:05.106Z,13.25
2023-02-05T06:05:34.508Z,11.10
2023-02-05T06:08:03.060Z,9.43
2023-02-05T06:10:33.051Z,9.63
2023-02-05T06:13:01.497Z,7.20
2023-02-05T06:15:31.215Z,6.35
2023-02-05T06:17:59.584Z,5.22
2023-02-05T06:20:27.822Z,5.80
2023-02-05T06:22:56.241Z,4.50
2023-02-05T06:25:24.647Z,4.32
2023-02-05T06:27:52.942Z,3.70
2023-02-05T06:30:21.465Z,3.35
2023-02-05T06:32:51.136Z,3.33
2023-02-05T06:35:19.885Z,2.75
2023-02-05T06:37:48.306Z,2.90
2023-02-05T06:40:21.086Z,3.22
2023-02-05T06:42:49.797Z,2.87
2023-02-05T06:45:18.227Z,3.17
2023-02-05T06:47:46.422Z,3.20
2023-02-05T06:50:16.162Z,2.10
2023-02-05T06:52:44.415Z,2.55
2023-02-05T06:55:12.668Z,2.30
2023-02-05T06:57:41.083Z,2.38
2023-02-05T07:00:11.515Z,2.20
2023-02-05T07:02:39.810Z,2.30
2023-02-05T07:05:08.820Z,2.00
2023-02-05T07:07:38.478Z,2.58
2023-02-05T07:10:07.188Z,2.63
2023-02-05T07:12:35.633Z,2.10
2023-02-05T07:15:04.270Z,2.83
2023-02-05T07:17:32.443Z,2.65
2023-02-05T07:20:01.367Z,2.33
2023-02-05T07:22:29.914Z,2.55
2023-02-05T07:24:59.482Z,1.92
2023-02-05T07:27:28.082Z,1.80
2023-02-05T07:29:56.616Z,2.40
2023-02-05T07:32:24.930Z,2.58
2023-02-05T07:34:53.668Z,2.70
2023-02-05T07:37:21.964Z,2.85
2023-02-05T07:39:50.238Z,3.47
2023-02-05T07:42:19.919Z,3.53
2023-02-05T07:44:48.440Z,2.58
2023-02-05T07:47:16.596Z,2.90
2023-02-05T07:49:45.629Z,2.70
2023-02-05T07:52:13.878Z,2.22
2023-02-05T07:54:42.293Z,3.45
2023-02-05T07:57:11.098Z,2.30
2023-02-05T07:59:41.035Z,2.10
2023-02-05T08:02:10.355Z,2.40
2023-02-05T08:04:39.009Z,2.78
2023-02-05T08:07:07.325Z,2.30
2023-02-05T08:09:35.543Z,3.15
2023-02-05T08:12:04.198Z,2.70
2023-02-05T08:14:32.501Z,2.60
2023-02-05T08:17:02.086Z,2.60
2023-02-05T08:19:30.888Z,2.95
2023-02-05T08:21:59.170Z,2.88
2023-02-05T08:24:27.468Z,2.65
2023-02-05T08:26:55.932Z,3.38
2023-02-05T08:29:24.303Z,3.22
2023-02-05T08:31:52.538Z,2.60
2023-02-05T08:34:22.218Z,3.88
2023-02-05T08:36:50.580Z,2.90
2023-02-05T08:39:18.820Z,3.45
2023-02-05T08:41:47.095Z,3.00
2023-02-05T08:44:15.418Z,2.83
2023-02-05T08:46:49.823Z,3.47
2023-02-05T08:49:19.001Z,2.67
2023-02-05T08:51:48.749Z,3.13
2023-02-05T08:54:17.100Z,2.90
2023-02-05T08:56:47.003Z,3.20
2023-02-05T08:59:15.442Z,3.20
2023-02-05T09:01:44.233Z,3.50
2023-02-05T09:04:15.667Z,3.53
2023-02-05T09:06:44.215Z,3.58
2023-02-05T09:09:14.776Z,2.95
2023-02-05T09:11:43.625Z,3.45
2023-02-05T09:14:12.189Z,3.20
2023-02-05T09:16:41.205Z,3.65
2023-02-05T09:19:09.793Z,3.65
2023-02-05T09:21:37.961Z,3.30
2023-02-05T09:24:06.928Z,3.20
2023-02-05T09:26:37.603Z,3.70
2023-02-05T09:29:05.813Z,4.22
2023-02-05T09:31:34.468Z,4.13
2023-02-05T09:34:04.105Z,3.83
2023-02-05T09:36:32.332Z,3.45
2023-02-05T09:39:14.036Z,3.90
2023-02-05T09:41:57.281Z,3.55
2023-02-05T09:44:42.950Z,3.90
2023-02-05T09:47:17.609Z,4.13
2023-02-05T09:49:54.706Z,4.35
2023-02-05T09:52:28.338Z,4.00
2023-02-05T09:57:34.486Z,4.07
2023-02-05T10:00:03.816Z,3.83
2023-02-05T10:02:38.684Z,3.97
2023-02-05T10:05:15.314Z,4.10
2023-02-05T10:07:51.071Z,3.90
2023-02-05T10:10:26.811Z,5.03
2023-02-05T10:13:24.367Z,4.53
2023-02-05T10:16:08.176Z,4.22
2023-02-05T10:18:47.727Z,3.92
2023-02-05T10:21:33.477Z,3.53
2023-02-05T10:24:27.964Z,4.38
2023-02-05T10:27:05.845Z,4.57
2023-02-05T10:29:42.091Z,4.68
2023-02-05T10:32:35.423Z,4.03
2023-02-05T10:35:19.798Z,4.30
2023-02-05T10:37:53.010Z,4.28
2023-02-05T10:40:24.727Z,3.45
2023-02-05T10:42:58.381Z,4.03
2023-02-05T10:48:25.645Z,3.70
2023-02-05T10:50:59.036Z,3.38
2023-02-05T10:53:28.803Z,3.92
2023-02-05T10:55:59.018Z,5.10
2023-02-05T10:58:40.236Z,3.97
2023-02-05T11:01:15.736Z,4.03
2023-02-05T11:03:54.971Z,4.13
2023-02-05T11:06:26.564Z,3.42
2023-02-05T11:08:55.256Z,4.07
2023-02-05T11:11:27.989Z,3.35
2023-02-05T11:13:58.841Z,3.93
2023-02-05T11:16:38.555Z,4.28
2023-02-05T11:19:19.585Z,3.55
2023-02-05T11:21:52.203Z,3.70
2023-02-05T11:24:30.513Z,3.60
2023-02-05T11:27:28.818Z,3.83
2023-02-05T11:30:00.088Z,4.43
2023-02-05T11:32:37.981Z,3.97
2023-02-05T11:35:20.920Z,3.88
2023-02-05T11:37:51.768Z,3.97
2023-02-05T11:40:26.442Z,3.92
2023-02-05T11:43:05.386Z,3.70
2023-02-05T11:45:35.761Z,3.47
2023-02-05T11:48:07.741Z,3.67
2023-02-05T11:50:36.538Z,3.28
2023-02-05T11:53:14.434Z,4.05
2023-02-05T11:55:44.359Z,3.42
2023-02-05T11:58:34.915Z,4.10
2023-02-05T12:01:07.959Z,4.13
2023-02-05T12:03:38.169Z,3.53
2023-02-05T12:06:13.864Z,3.38
2023-02-05T12:08:49.345Z,3.85
2023-02-05T12:11:29.884Z,4.00
2023-02-05T12:14:06.648Z,4.38
2023-02-05T12:16:48.738Z,3.42
2023-02-05T12:19:23.468Z,3.88
2023-02-05T12:22:00.011Z,3.38
2023-02-05T12:24:48.757Z,4.32
2023-02-05T12:27:31.168Z,3.55
2023-02-05T12:30:22.138Z,4.07
2023-02-05T12:32:59.283Z,3.70
2023-02-05T12:35:47.201Z,4.57
2023-02-05T12:38:32.438Z,3.45
2023-02-05T12:41:14.003Z,4.28
2023-02-05T12:43:46.456Z,3.35
2023-02-05T12:46:37.495Z,3.28
2023-02-05T12:49:19.852Z,3.15
2023-02-05T12:52:04.680Z,3.90
2023-02-05T12:54:56.058Z,3.17
2023-02-05T12:57:28.129Z,4.40
2023-02-05T13:00:02.844Z,3.95
2023-02-05T13:02:36.070Z,4.47
2023-02-05T13:05:17.302Z,3.95
2023-02-05T13:07:53.722Z,3.35
2023-02-05T13:10:26.994Z,3.75
2023-02-05T13:13:00.636Z,4.07
2023-02-05T13:18:02.750Z,3.60
2023-02-05T13:20:59.769Z,3.90
2023-02-05T13:23:48.580Z,3.78
2023-02-05T13:26:36.277Z,3.67
2023-02-05T13:29:10.367Z,4.00
2023-02-05T13:31:42.255Z,3.90
2023-02-05T13:34:14.201Z,3.67
2023-02-05T13:37:13.726Z,4.22
2023-02-05T13:40:05.916Z,4.03
2023-02-05T13:43:12.274Z,4.20
2023-02-05T13:46:12.804Z,4.72
2023-02-05T13:49:19.009Z,4.93
2023-02-05T13:52:08.055Z,3.53
2023-02-05T13:55:01.337Z,4.35
2023-02-05T13:58:03.170Z,3.83
2023-02-05T14:00:32.057Z,3.75
2023-02-05T14:03:05.823Z,3.90
2023-02-05T14:05:37.348Z,4.40
2023-02-05T14:08:07.054Z,4.05
2023-02-05T14:10:40.457Z,4.68
2023-02-05T14:13:18.440Z,3.72
2023-02-05T14:15:47.172Z,3.97
2023-02-05T14:18:49.090Z,5.32
2023-02-05T14:21:58.818Z,6.72
2023-02-05T14:24:39.193Z,3.85
2023-02-05T14:27:43.498Z,3.70
2023-02-05T14:30:37.862Z,3.72
2023-02-05T14:33:28.743Z,3.33
2023-02-05T14:35:59.104Z,3.25
2023-02-05T14:38:33.087Z,3.25
2023-02-05T14:41:05.541Z,3.78
2023-02-05T14:43:35.989Z,3.70
2023-02-05T14:46:07.934Z,3.00
2023-02-05T14:48:43.717Z,5.07
2023-02-05T14:51:22.276Z,4.00
2023-02-05T14:53:57.418Z,4.60
2023-02-05T14:56:31.791Z,3.60
2023-02-05T14:59:05.192Z,4.20
2023-02-05T15:01:46.796Z,3.90
2023-02-05T15:04:39.910Z,4.25
2023-02-05T15:07:14.126Z,3.67
2023-02-05T15:09:46.905Z,4.10
2023-02-05T15:12:51.807Z,3.07
2023-02-05T15:15:35.169Z,3.47
2023-02-05T15:18:16.194Z,3.25
2023-02-05T15:20:49.156Z,3.42
2023-02-05T15:23:35.617Z,3.80
2023-02-05T15:26:07.420Z,3.58
2023-02-05T15:28:40.623Z,4.05
2023-02-05T15:31:22.321Z,3.50
2023-02-05T15:33:59.401Z,4.40
2023-02-05T15:36:33.709Z,3.90
2023-02-05T15:39:27.318Z,3.80
2023-02-05T15:41:58.843Z,4.45
2023-02-05T15:44:30.814Z,4.00
2023-02-05T15:47:01.463Z,3.40
2023-02-05T15:49:39.379Z,3.80
2023-02-05T15:52:08.196Z,4.45
2023-02-05T15:54:38.144Z,4.55
2023-02-05T15:57:08.894Z,5.47
2023-02-05T15:59:37.372Z,4.10
2023-02-05T16:02:10.187Z,4.50
2023-02-05T16:04:41.022Z,3.57
2023-02-05T16:07:20.623Z,4.20
2023-02-05T16:09:52.181Z,3.78
2023-02-05T16:12:23.489Z,4.20
2023-02-05T16:15:00.193Z,4.28
2023-02-05T16:17:35.989Z,5.03
2023-02-05T16:20:18.083Z,4.45
2023-02-05T16:22:52.752Z,4.45
2023-02-05T16:25:30.578Z,4.22
2023-02-05T16:28:01.846Z,4.32
2023-02-05T16:30:34.678Z,4.72
2023-02-05T16:33:05.654Z,4.70
2023-02-05T16:35:38.482Z,3.95
2023-02-05T16:38:09.428Z,5.15
2023-02-05T16:40:43.356Z,6.57
2023-02-05T16:43:31.983Z,4.88
2023-02-05T16:46:23.409Z,4.97
2023-02-05T16:48:53.375Z,5.05
2023-02-05T16:51:38.533Z,5.20
2023-02-05T16:54:35.095Z,5.43
2023-02-05T16:57:08.178Z,5.90
2023-02-05T16:59:48.721Z,5.32
2023-02-05T17:02:31.834Z,5.68
2023-02-05T17:05:02.312Z,4.37
2023-02-05T17:07:32.799Z,5.57
2023-02-05T17:10:25.493Z,4.43
2023-02-05T17:12:58.644Z,4.82
2023-02-05T17:15:30.015Z,7.03
2023-02-05T17:18:04.535Z,6.38
2023-02-05T17:20:34.388Z,5.68
2023-02-05T17:23:11.170Z,5.70
2023-02-05T17:25:41.932Z,6.03
2023-02-05T17:28:15.740Z,4.95
2023-02-05T17:30:45.284Z,5.65
2023-02-05T17:33:18.539Z,4.95
2023-02-05T17:35:47.124Z,4.80
2023-02-05T17:38:17.391Z,4.82
2023-02-05T17:40:46.097Z,5.95
2023-02-05T17:43:14.820Z,5.90
2023-02-05T17:45:44.422Z,5.50
2023-02-05T17:48:12.929Z,4.97
2023-02-05T17:50:41.300Z,5.95
2023-02-05T17:53:14.121Z,5.05
2023-02-05T17:55:44.068Z,5.85
2023-02-05T17:58:12.470Z,5.85
2023-02-05T18:00:40.935Z,6.70
2023-02-05T18:03:09.510Z,6.22
2023-02-05T18:05:37.816Z,6.50
2023-02-05T18:08:07.506Z,6.45
2023-02-05T18:10:37.156Z,6.22
2023-02-05T18:13:07.016Z,6.72
2023-02-05T18:15:35.320Z,5.88
2023-02-05T18:18:03.899Z,5.40
2023-02-05T18:20:32.245Z,5.47
2023-02-05T18:23:00.421Z,6.25
2023-02-05T18:25:28.807Z,6.07
2023-02-05T18:27:57.309Z,6.13
2023-02-05T18:30:27.207Z,7.00
2023-02-05T18:32:55.525Z,5.85
2023-02-05T18:35:23.899Z,6.65
2023-02-05T18:37:52.109Z,5.40
2023-02-05T18:40:20.449Z,4.97
2023-02-05T18:42:52.099Z,5.40
2023-02-05T18:45:20.606Z,6.07
2023-02-05T18:47:50.445Z,6.20
2023-02-05T18:50:18.929Z,6.47
2023-02-05T18:52:48.251Z,6.38
2023-02-05T18:55:17.099Z,5.65
2023-02-05T18:57:45.608Z,5.75
2023-02-05T19:00:14.893Z,6.25
2023-02-05T19:02:43.420Z,6.25
2023-02-05T19:05:13.490Z,5.85
2023-02-05T19:07:41.760Z,5.50
2023-02-05T19:10:10.543Z,7.53
2023-02-05T19:12:38.907Z,6.97
2023-02-05T19:15:07.841Z,7.35
2023-02-05T19:17:36.227Z,7.25
2023-02-05T19:20:05.950Z,7.72
2023-02-05T19:22:35.543Z,7.03
2023-02-05T19:25:04.057Z,7.28
2023-02-05T19:27:32.614Z,6.95
2023-02-05T19:30:00.883Z,7.93
2023-02-05T19:32:29.389Z,6.78
2023-02-05T19:34:59.663Z,7.15
2023-02-05T19:37:27.804Z,7.03
2023-02-05T19:39:57.484Z,6.47
2023-02-05T19:42:27.308Z,6.30
2023-02-05T19:44:55.575Z,6.30
2023-02-05T19:47:23.908Z,7.47
2023-02-05T19:49:52.133Z,6.30
2023-02-05T19:52:20.612Z,6.07
2023-02-05T19:54:49.070Z,6.38
2023-02-05T19:57:18.784Z,6.30
2023-02-05T19:59:47.081Z,6.15
2023-02-05T20:02:19.451Z,6.68
2023-02-05T20:04:47.916Z,6.65
2023-02-05T20:07:16.202Z,5.68
2023-02-05T20:09:44.792Z,6.07
2023-02-05T20:12:13.224Z,5.88
2023-02-05T20:14:42.993Z,6.20
2023-02-05T20:17:16.672Z,7.40
2023-02-05T20:22:13.150Z,6.90
2023-02-05T20:24:41.662Z,5.97
2023-02-05T20:27:10.035Z,7.32
2023-02-05T20:29:55.813Z,6.57
2023-02-05T20:32:25.736Z,7.32
2023-02-05T20:34:54.074Z,6.97
2023-02-05T20:37:22.737Z,6.72
2023-02-05T20:39:51.210Z,6.15
2023-02-05T20:42:19.402Z,6.00
2023-02-05T20:44:48.023Z,6.18
2023-02-05T20:47:16.380Z,5.53
2023-02-05T20:49:46.199Z,6.28
2023-02-05T20:52:14.911Z,7.65
2023-02-05T20:54:43.432Z,7.03
2023-02-05T20:57:11.734Z,5.93
2023-02-05T20:59:40.096Z,6.00
2023-02-05T21:02:08.782Z,5.85
2023-02-05T21:04:38.052Z,6.25
2023-02-05T21:07:07.798Z,5.93
2023-02-05T21:09:36.334Z,5.85
2023-02-05T21:12:04.680Z,7.05
2023-02-05T21:14:33.153Z,6.80
2023-02-05T21:17:01.693Z,7.28
2023-02-05T21:19:29.987Z,7.50
2023-02-05T21:21:59.296Z,6.18
2023-02-05T21:24:29.539Z,6.68
2023-02-05T21:26:57.709Z,6.95
2023-02-05T21:29:25.952Z,5.63
2023-02-05T21:31:56.132Z,6.55
2023-02-05T21:34:26.432Z,5.80
2023-02-05T21:36:55.871Z,6.03
2023-02-05T21:39:25.700Z,5.72
2023-02-05T21:41:55.464Z,6.10
2023-02-05T21:44:24.108Z,6.00
2023-02-05T21:46:53.815Z,7.15
2023-02-05T21:49:22.184Z,5.80
2023-02-05T21:51:53.218Z,6.50
2023-02-05T21:54:25.483Z,5.25
2023-02-05T21:56:55.913Z,6.70
2023-02-05T21:59:24.655Z,5.57
2023-02-05T22:01:53.070Z,5.53
2023-02-05T22:04:21.514Z,5.47
2023-02-05T22:06:51.313Z,5.90
2023-02-05T22:09:19.567Z,6.22
2023-02-05T22:11:49.903Z,5.72
2023-02-05T22:14:20.524Z,5.78
2023-02-05T22:16:48.760Z,5.72
2023-02-05T22:19:17.085Z,7.25
2023-02-05T22:21:45.788Z,6.75
2023-02-05T22:24:16.571Z,5.47
2023-02-05T22:26:46.428Z,6.10
2023-02-05T22:29:16.975Z,6.80
2023-02-05T22:31:50.691Z,5.68
2023-02-05T22:34:19.107Z,6.15
2023-02-05T22:36:47.464Z,5.35
2023-02-05T22:39:16.003Z,6.25
2023-02-05T22:41:44.749Z,6.05
2023-02-05T22:44:13.604Z,6.50
2023-02-05T22:46:44.648Z,5.70
2023-02-05T22:49:16.249Z,5.70
2023-02-05T22:51:45.763Z,5.55
2023-02-05T22:54:15.941Z,6.47
2023-02-05T22:56:44.885Z,5.95
2023-02-05T22:59:13.667Z,6.40
2023-02-05T23:01:41.998Z,5.28
2023-02-05T23:04:11.074Z,5.88
2023-02-05T23:06:42.569Z,6.72
2023-02-05T23:09:13.836Z,5.50
2023-02-05T23:11:42.499Z,5.65
2023-02-05T23:14:12.436Z,5.53
2023-02-05T23:16:42.522Z,5.93
2023-02-05T23:19:13.941Z,5.82
2023-02-05T23:21:44.109Z,6.60
2023-02-05T23:24:13.073Z,6.45
2023-02-05T23:26:44.554Z,5.70
2023-02-05T23:29:14.778Z,6.78
2023-02-05T23:31:43.813Z,6.68
2023-02-05T23:34:12.367Z,5.65
2023-02-05T23:36:41.202Z,5.50
2023-02-05T23:39:10.890Z,6.20
2023-02-05T23:41:40.268Z,5.93
2023-02-05T23:44:12.557Z,6.70
2023-02-05T23:46:41.454Z,5.93
2023-02-05T23:49:09.682Z,5.78
2023-02-05T23:51:39.184Z,5.38
2023-02-05T23:54:08.921Z,5.10
2023-02-05T23:56:38.530Z,5.50
2023-02-05T23:59:07.697Z,5.40
